createdAt,value
2018-10-17T00:00:26.090Z,18.6
2018-10-17T00:01:27.248Z,18.5
2018-10-17T00:02:28.431Z,18.5
2018-10-17T00:03:29.638Z,18.5
2018-10-17T00:04:30.871Z,18.6
2018-10-17T00:05:32.047Z,18.5
2018-10-17T00:06:33.215Z,18.6
2018-10-17T00:07:34.374Z,18.6
2018-10-17T00:08:35.560Z,18.5
2018-10-17T00:09:36.798Z,18.5
2018-10-17T00:10:38.094Z,18.5
2018-10-17T00:11:40.832Z,18.5
2018-10-17T00:12:42.136Z,18.5
2018-10-17T00:13:43.341Z,18.4
2018-10-17T00:14:45.686Z,18.5
2018-10-17T00:15:47.098Z,18.5
2018-10-17T00:16:48.295Z,18.5
2018-10-17T00:17:49.471Z,18.5
2018-10-17T00:18:50.946Z,18.5
2018-10-17T00:19:52.347Z,18.5
2018-10-17T00:20:53.554Z,18.5
2018-10-17T00:21:54.714Z,18.5
2018-10-17T00:22:55.957Z,18.5
2018-10-17T00:23:57.599Z,18.5
2018-10-17T00:24:58.841Z,18.5
2018-10-17T00:26:00.021Z,18.5
2018-10-17T00:27:01.202Z,18.5
2018-10-17T00:28:02.384Z,18.4
2018-10-17T00:29:04.752Z,18.4
2018-10-17T00:30:05.942Z,18.5
2018-10-17T00:31:07.129Z,18.5
2018-10-17T00:32:08.576Z,18.4
2018-10-17T00:33:09.839Z,18.5
2018-10-17T00:34:11.103Z,18.5
2018-10-17T00:35:12.393Z,18.5
2018-10-17T00:36:13.548Z,18.3
2018-10-17T00:37:14.788Z,18.3
2018-10-17T00:38:15.925Z,18.4
2018-10-17T00:39:17.144Z,18.4
2018-10-17T00:40:18.400Z,18.5
2018-10-17T00:41:19.517Z,18.4
2018-10-17T00:42:20.693Z,18.4
2018-10-17T00:43:21.902Z,18.4
2018-10-17T00:44:23.336Z,18.4
2018-10-17T00:45:25.308Z,18.4
2018-10-17T00:46:27.405Z,18.5
2018-10-17T00:47:28.604Z,18.4
2018-10-17T00:48:30.551Z,18.4
2018-10-17T00:49:31.977Z,18.4
2018-10-17T00:50:33.170Z,18.4
2018-10-17T00:51:34.444Z,18.4
2018-10-17T00:52:35.603Z,18.2
2018-10-17T00:53:36.777Z,18.3
2018-10-17T00:54:38.465Z,18.3
2018-10-17T00:55:39.951Z,18.3
2018-10-17T00:56:41.177Z,18.3
2018-10-17T00:57:42.355Z,18.3
2018-10-17T00:58:43.709Z,18.3
2018-10-17T00:59:44.897Z,18.3
2018-10-17T01:00:46.133Z,18.3
2018-10-17T01:01:47.807Z,18.3
2018-10-17T01:02:50.287Z,18.4
2018-10-17T01:03:51.480Z,18.4
2018-10-17T01:04:53.159Z,18.4
2018-10-17T01:05:54.620Z,18.4
2018-10-17T01:06:57.559Z,18.3
2018-10-17T01:07:58.728Z,18.4
2018-10-17T01:08:59.987Z,18.3
2018-10-17T01:10:01.229Z,18.3
2018-10-17T01:11:02.527Z,18.3
2018-10-17T01:12:03.659Z,18.3
2018-10-17T01:13:04.932Z,18.3
2018-10-17T01:14:06.167Z,18.3
2018-10-17T01:15:07.324Z,18.4
2018-10-17T01:16:08.538Z,18.3
2018-10-17T01:17:09.938Z,18.3
2018-10-17T01:18:14.348Z,18.3
2018-10-17T01:19:15.514Z,18.3
2018-10-17T01:20:16.690Z,18.3
2018-10-17T01:21:17.913Z,18.3
2018-10-17T01:22:19.112Z,18.3
2018-10-17T01:23:20.294Z,18.3
2018-10-17T01:24:21.618Z,18.3
2018-10-17T01:25:22.809Z,18.3
2018-10-17T01:26:24.022Z,18.2
2018-10-17T01:27:25.190Z,18.3
2018-10-17T01:28:26.677Z,18.3
2018-10-17T01:29:27.897Z,18.3
2018-10-17T01:30:29.171Z,18.3
2018-10-17T01:31:30.690Z,18.3
2018-10-17T01:32:31.869Z,18.3
2018-10-17T01:33:33.062Z,18.3
2018-10-17T01:34:34.238Z,18.3
2018-10-17T01:35:35.471Z,18.2
2018-10-17T01:36:41.437Z,18.2
2018-10-17T01:37:42.606Z,18.3
2018-10-17T01:38:43.775Z,18.2
2018-10-17T01:39:44.960Z,18.2
2018-10-17T01:40:46.168Z,18.2
2018-10-17T01:41:47.414Z,18.2
2018-10-17T01:42:48.599Z,18.2
2018-10-17T01:43:49.778Z,18.3
2018-10-17T01:44:50.950Z,18.3
2018-10-17T01:45:52.148Z,18.3
2018-10-17T01:46:53.745Z,18.3
2018-10-17T01:47:54.898Z,18.3
2018-10-17T01:48:56.121Z,18.2
2018-10-17T01:49:57.295Z,18.2
2018-10-17T01:50:58.500Z,18.2
2018-10-17T01:51:59.697Z,18.2
2018-10-17T01:53:00.900Z,18.2
2018-10-17T01:54:02.033Z,18.2
2018-10-17T01:55:03.261Z,18.2
2018-10-17T01:56:04.430Z,18.2
2018-10-17T01:57:05.636Z,18.2
2018-10-17T01:58:06.887Z,18.2
2018-10-17T01:59:08.162Z,18.2
2018-10-17T02:00:09.260Z,18.1
2018-10-17T02:01:10.500Z,18.1
2018-10-17T02:02:11.698Z,18.2
2018-10-17T02:03:12.893Z,18.1
2018-10-17T02:04:14.082Z,18.1
2018-10-17T02:05:15.317Z,18.1
2018-10-17T02:06:16.625Z,18.1
2018-10-17T02:07:17.835Z,18.1
2018-10-17T02:08:19.078Z,18.1
2018-10-17T02:09:20.232Z,18.1
2018-10-17T02:10:21.402Z,18
2018-10-17T02:11:22.550Z,18.1
2018-10-17T02:12:23.765Z,18.1
2018-10-17T02:13:24.967Z,18.1
2018-10-17T02:14:26.125Z,18.1
2018-10-17T02:15:27.305Z,18.1
2018-10-17T02:16:28.480Z,18.1
2018-10-17T02:17:29.667Z,18.1
2018-10-17T02:18:30.842Z,18.1
2018-10-17T02:19:32.022Z,18.1
2018-10-17T02:20:33.223Z,18.1
2018-10-17T02:21:34.471Z,18.1
2018-10-17T02:22:35.685Z,18.1
2018-10-17T02:23:37.034Z,18.1
2018-10-17T02:24:38.564Z,18.1
2018-10-17T02:25:39.878Z,18.1
2018-10-17T02:26:41.064Z,18.1
2018-10-17T02:27:42.270Z,18
2018-10-17T02:28:43.548Z,18.1
2018-10-17T02:29:45.013Z,18
2018-10-17T02:30:46.199Z,18
2018-10-17T02:31:47.381Z,18
2018-10-17T02:32:48.603Z,18
2018-10-17T02:33:49.757Z,18
2018-10-17T02:34:50.939Z,18
2018-10-17T02:35:52.141Z,18
2018-10-17T02:36:53.318Z,17.9
2018-10-17T02:37:54.781Z,17.9
2018-10-17T02:38:56.028Z,18
2018-10-17T02:39:57.265Z,18
2018-10-17T02:40:58.457Z,18
2018-10-17T02:41:59.644Z,17.8
2018-10-17T02:43:00.939Z,17.9
2018-10-17T02:44:02.100Z,17.9
2018-10-17T02:45:03.285Z,18
2018-10-17T02:46:04.474Z,17.9
2018-10-17T02:47:05.726Z,17.9
2018-10-17T02:48:06.902Z,18
2018-10-17T02:49:08.126Z,17.9
2018-10-17T02:50:09.253Z,17.9
2018-10-17T02:51:10.424Z,17.9
2018-10-17T02:52:14.635Z,18
2018-10-17T02:53:16.141Z,17.9
2018-10-17T02:54:17.311Z,17.9
2018-10-17T02:55:18.484Z,17.9
2018-10-17T02:56:22.348Z,17.9
2018-10-17T02:57:23.895Z,17.9
2018-10-17T02:58:25.102Z,17.9
2018-10-17T02:59:26.259Z,17.9
2018-10-17T03:00:27.477Z,17.8
2018-10-17T03:01:28.682Z,17.8
2018-10-17T03:02:29.863Z,17.9
2018-10-17T03:03:31.208Z,17.9
2018-10-17T03:04:32.478Z,17.9
2018-10-17T03:05:33.911Z,17.9
2018-10-17T03:06:35.097Z,17.8
2018-10-17T03:07:36.339Z,17.7
2018-10-17T03:08:37.728Z,17.9
2018-10-17T03:09:38.897Z,17.8
2018-10-17T03:10:40.083Z,17.8
2018-10-17T03:11:41.271Z,17.8
2018-10-17T03:12:42.562Z,17.9
2018-10-17T03:13:43.763Z,17.9
2018-10-17T03:14:44.926Z,17.9
2018-10-17T03:15:46.098Z,17.9
2018-10-17T03:16:49.723Z,17.9
2018-10-17T03:17:50.879Z,17.8
2018-10-17T03:18:52.286Z,17.8
2018-10-17T03:19:53.795Z,17.8
2018-10-17T03:20:54.979Z,17.8
2018-10-17T03:21:56.154Z,17.9
2018-10-17T03:22:57.777Z,17.8
2018-10-17T03:23:58.968Z,17.8
2018-10-17T03:25:00.160Z,17.8
2018-10-17T03:26:01.378Z,17.8
2018-10-17T03:27:03.688Z,17.8
2018-10-17T03:28:05.711Z,17.8
2018-10-17T03:29:07.779Z,17.8
2018-10-17T03:30:08.989Z,17.9
2018-10-17T03:31:10.325Z,17.8
2018-10-17T03:32:11.460Z,17.8
2018-10-17T03:33:12.674Z,17.8
2018-10-17T03:34:13.903Z,17.8
2018-10-17T03:35:15.096Z,17.8
2018-10-17T03:36:16.277Z,17.8
2018-10-17T03:37:20.306Z,17.7
2018-10-17T03:38:21.484Z,17.8
2018-10-17T03:39:22.735Z,17.8
2018-10-17T03:40:23.933Z,17.7
2018-10-17T03:41:25.162Z,17.8
2018-10-17T03:42:26.343Z,17.7
2018-10-17T03:43:27.610Z,17.7
2018-10-17T03:44:28.846Z,17.6
2018-10-17T03:45:30.188Z,17.6
2018-10-17T03:46:33.272Z,17.5
2018-10-17T03:47:34.457Z,17.7
2018-10-17T03:48:39.755Z,17.7
2018-10-17T03:49:41.012Z,17.7
2018-10-17T03:50:42.186Z,17.7
2018-10-17T03:51:43.455Z,17.7
2018-10-17T03:52:44.645Z,17.7
2018-10-17T03:53:45.888Z,17.7
2018-10-17T03:54:47.122Z,17.7
2018-10-17T03:55:48.353Z,17.8
2018-10-17T03:56:49.587Z,17.7
2018-10-17T03:57:50.785Z,17.7
2018-10-17T03:58:51.995Z,17.7
2018-10-17T03:59:53.250Z,17.7
2018-10-17T04:00:54.479Z,17.7
2018-10-17T04:01:55.630Z,17.6
2018-10-17T04:02:56.943Z,17.7
2018-10-17T04:03:58.094Z,17.6
2018-10-17T04:04:59.535Z,17.6
2018-10-17T04:06:00.710Z,17.6
2018-10-17T04:07:02.256Z,17.5
2018-10-17T04:08:07.244Z,17.7
2018-10-17T04:09:08.423Z,17.7
2018-10-17T04:10:09.662Z,17.6
2018-10-17T04:11:10.936Z,17.6
2018-10-17T04:12:12.149Z,17.6
2018-10-17T04:13:14.768Z,17.5
2018-10-17T04:14:15.927Z,17.6
2018-10-17T04:15:17.222Z,17.6
2018-10-17T04:16:20.061Z,17.7
2018-10-17T04:17:21.294Z,17.6
2018-10-17T04:18:25.559Z,17.5
2018-10-17T04:19:29.111Z,17.6
2018-10-17T04:20:30.375Z,17.6
2018-10-17T04:21:31.699Z,17.6
2018-10-17T04:22:32.916Z,17.6
2018-10-17T04:23:34.315Z,17.6
2018-10-17T04:24:35.730Z,17.6
2018-10-17T04:25:37.333Z,17.6
2018-10-17T04:26:38.546Z,17.7
2018-10-17T04:27:40.376Z,17.6
2018-10-17T04:28:42.555Z,17.6
2018-10-17T04:29:43.763Z,17.6
2018-10-17T04:30:45.271Z,17.6
2018-10-17T04:31:46.460Z,17.6
2018-10-17T04:32:47.752Z,17.6
2018-10-17T04:33:48.945Z,17.6
2018-10-17T04:34:50.121Z,17.6
2018-10-17T04:35:51.374Z,17.6
2018-10-17T04:36:52.705Z,17.6
2018-10-17T04:37:53.893Z,17.5
2018-10-17T04:38:55.100Z,17.5
2018-10-17T04:39:56.337Z,17.6
2018-10-17T04:40:57.576Z,17.5
2018-10-17T04:41:58.776Z,17.5
2018-10-17T04:43:00.011Z,17.5
2018-10-17T04:44:01.170Z,17.5
2018-10-17T04:45:02.447Z,17.5
2018-10-17T04:46:03.660Z,17.6
2018-10-17T04:47:04.937Z,17.6
2018-10-17T04:48:06.403Z,17.6
2018-10-17T04:49:07.595Z,17.5
2018-10-17T04:50:08.764Z,17.6
2018-10-17T04:51:10.064Z,17.4
2018-10-17T04:52:11.289Z,17.5
2018-10-17T04:53:12.561Z,17.5
2018-10-17T04:54:13.705Z,17.5
2018-10-17T04:55:14.996Z,17.5
2018-10-17T04:56:16.357Z,17.5
2018-10-17T04:57:20.588Z,17.5
2018-10-17T04:58:21.789Z,17.5
2018-10-17T04:59:23.031Z,17.5
2018-10-17T05:00:24.243Z,17.5
2018-10-17T05:01:25.714Z,17.4
2018-10-17T05:02:27.162Z,17.5
2018-10-17T05:03:28.446Z,17.5
2018-10-17T05:04:29.682Z,17.4
2018-10-17T05:05:30.894Z,17.5
2018-10-17T05:06:32.198Z,17.4
2018-10-17T05:07:33.396Z,17.4
2018-10-17T05:08:34.627Z,17.4
2018-10-17T05:09:35.845Z,17.4
2018-10-17T05:10:37.056Z,17.5
2018-10-17T05:11:39.476Z,17.5
2018-10-17T05:12:40.899Z,17.5
2018-10-17T05:13:42.102Z,17.5
2018-10-17T05:14:43.305Z,17.5
2018-10-17T05:15:44.515Z,17.6
2018-10-17T05:16:45.765Z,17.5
2018-10-17T05:17:54.571Z,17.5
2018-10-17T05:18:55.807Z,17.5
2018-10-17T05:19:56.992Z,17.5
2018-10-17T05:20:58.300Z,17.5
2018-10-17T05:21:59.519Z,17.5
2018-10-17T05:23:00.752Z,17.4
2018-10-17T05:24:01.996Z,17.5
2018-10-17T05:25:03.235Z,17.4
2018-10-17T05:26:04.642Z,17.5
2018-10-17T05:27:05.900Z,17.4
2018-10-17T05:28:07.762Z,17.4
2018-10-17T05:29:09.499Z,17.4
2018-10-17T05:30:10.608Z,17.3
2018-10-17T05:31:11.929Z,17.4
2018-10-17T05:32:13.037Z,17.4
2018-10-17T05:33:14.247Z,17.4
2018-10-17T05:34:15.458Z,17.4
2018-10-17T05:35:16.732Z,17.4
2018-10-17T05:36:17.843Z,17.4
2018-10-17T05:37:19.180Z,17.4
2018-10-17T05:38:22.503Z,17.5
2018-10-17T05:39:23.750Z,17.5
2018-10-17T05:40:25.318Z,17.4
2018-10-17T05:41:26.851Z,17.4
2018-10-17T05:42:30.343Z,17.4
2018-10-17T05:43:31.553Z,17.4
2018-10-17T05:44:32.867Z,17.5
2018-10-17T05:45:34.067Z,17.5
2018-10-17T05:46:35.310Z,17.3
2018-10-17T05:47:36.819Z,17.3
2018-10-17T05:48:38.089Z,17.3
2018-10-17T05:49:49.573Z,17.4
2018-10-17T05:50:58.992Z,17.3
2018-10-17T05:52:02.815Z,17.4
2018-10-17T05:53:04.430Z,17.4
2018-10-17T05:54:05.864Z,17.2
2018-10-17T05:55:09.839Z,17.4
2018-10-17T05:56:13.425Z,17.4
2018-10-17T05:57:18.665Z,17.4
2018-10-17T05:58:28.295Z,17.4
2018-10-17T05:59:31.115Z,17.4
2018-10-17T06:00:32.392Z,17.4
2018-10-17T06:01:33.797Z,17.4
2018-10-17T06:02:39.288Z,17.4
2018-10-17T06:03:45.158Z,17.4
2018-10-17T06:04:46.890Z,17.4
2018-10-17T06:05:48.768Z,17.4
2018-10-17T06:06:50.154Z,17.2
2018-10-17T06:07:52.171Z,17.4
2018-10-17T06:08:53.398Z,17.4
2018-10-17T06:09:54.693Z,17.5
2018-10-17T06:10:57.019Z,17.4
2018-10-17T06:12:01.247Z,17.4
2018-10-17T06:13:02.497Z,17.4
2018-10-17T06:14:03.673Z,17.4
2018-10-17T06:15:05.060Z,17.5
2018-10-17T06:16:08.703Z,17.6
2018-10-17T06:17:10.241Z,17.6
2018-10-17T06:18:14.269Z,17.6
2018-10-17T06:19:18.569Z,17.6
2018-10-17T06:20:19.769Z,17.7
2018-10-17T06:21:20.994Z,17.7
2018-10-17T06:22:24.928Z,17.7
2018-10-17T06:23:26.243Z,17.8
2018-10-17T06:25:45.707Z,17.8
2018-10-17T06:26:46.928Z,17.8
2018-10-17T06:27:50.597Z,17.9
2018-10-17T06:28:52.085Z,17.8
2018-10-17T06:29:53.351Z,17.9
2018-10-17T06:30:54.574Z,18
2018-10-17T06:31:55.797Z,18
2018-10-17T06:32:57.314Z,18
2018-10-17T06:33:58.783Z,18
2018-10-17T06:35:00.244Z,18
2018-10-17T06:36:01.430Z,18
2018-10-17T06:37:02.792Z,18
2018-10-17T06:38:04.067Z,18
2018-10-17T06:39:07.718Z,18
2018-10-17T06:40:10.541Z,18
2018-10-17T06:41:11.887Z,18.1
2018-10-17T06:42:13.075Z,18.1
2018-10-17T06:43:14.425Z,18.1
2018-10-17T06:44:16.087Z,18.2
2018-10-17T06:45:20.319Z,18.2
2018-10-17T06:46:21.553Z,18.3
2018-10-17T06:47:22.791Z,18.3
2018-10-17T06:48:26.642Z,18.4
2018-10-17T06:49:27.985Z,18.5
2018-10-17T06:50:31.547Z,18.5
2018-10-17T06:51:33.774Z,18.5
2018-10-17T06:52:35.011Z,18.5
2018-10-17T06:53:36.278Z,18.5
2018-10-17T06:54:37.494Z,18.4
2018-10-17T06:55:38.822Z,18.4
2018-10-17T06:56:42.426Z,18.4
2018-10-17T06:57:47.092Z,18.3
2018-10-17T06:58:51.419Z,18.4
2018-10-17T07:00:12.086Z,18.3
2018-10-17T07:01:16.189Z,18.4
2018-10-17T07:02:19.384Z,18.5
2018-10-17T07:03:23.328Z,18.5
2018-10-17T07:04:24.949Z,18.5
2018-10-17T07:05:26.662Z,18.5
2018-10-17T07:06:28.166Z,18.6
2018-10-17T07:07:29.551Z,18.7
2018-10-17T07:08:33.252Z,18.9
2018-10-17T07:09:34.600Z,19
2018-10-17T07:10:46.784Z,19
2018-10-17T07:11:48.693Z,19.2
2018-10-17T07:12:51.590Z,19.2
2018-10-17T07:13:54.184Z,19.1
2018-10-17T07:14:56.178Z,19
2018-10-17T07:15:57.400Z,19
2018-10-17T07:16:58.694Z,18.9
2018-10-17T07:18:11.611Z,18.9
2018-10-17T07:19:15.256Z,19
2018-10-17T07:20:16.522Z,19.2
2018-10-17T07:21:22.634Z,19.4
2018-10-17T07:22:23.859Z,19.5
2018-10-17T07:23:25.450Z,19.4
2018-10-17T07:24:29.524Z,19.4
2018-10-17T07:25:30.755Z,19.6
2018-10-17T07:26:34.683Z,19.7
2018-10-17T07:27:36.288Z,19.7
2018-10-17T07:28:37.649Z,19.8
2018-10-17T07:29:40.079Z,19.8
2018-10-17T07:30:43.569Z,19.9
2018-10-17T07:31:44.736Z,20
2018-10-17T07:32:46.231Z,20
2018-10-17T07:33:47.448Z,20
2018-10-17T07:34:48.729Z,20
2018-10-17T07:35:53.208Z,20
2018-10-17T07:36:54.380Z,20
2018-10-17T07:37:57.042Z,20.1
2018-10-17T07:39:05.385Z,20.1
2018-10-17T07:40:09.329Z,20.1
2018-10-17T07:41:10.479Z,20.2
2018-10-17T07:42:14.340Z,20.2
2018-10-17T07:43:15.478Z,20.3
2018-10-17T07:44:16.650Z,20.3
2018-10-17T07:45:17.850Z,20.4
2018-10-17T07:46:19.015Z,20.4
2018-10-17T07:47:20.875Z,20.3
2018-10-17T07:48:24.595Z,20.5
2018-10-17T07:49:25.796Z,20.4
2018-10-17T07:50:26.978Z,20.3
2018-10-17T07:51:28.200Z,20.3
2018-10-17T07:52:29.376Z,20.2
2018-10-17T07:53:35.237Z,20.2
2018-10-17T07:54:36.336Z,20.2
2018-10-17T07:55:37.763Z,20.2
2018-10-17T07:56:38.990Z,20.3
2018-10-17T07:57:40.151Z,20.5
2018-10-17T07:58:41.354Z,20.6
2018-10-17T07:59:42.666Z,20.6
2018-10-17T08:00:43.884Z,20.7
2018-10-17T08:01:45.043Z,20.6
2018-10-17T08:02:51.963Z,20.7
2018-10-17T08:03:55.663Z,20.8
2018-10-17T08:04:56.850Z,20.8
2018-10-17T08:05:58.126Z,20.9
2018-10-17T08:07:05.559Z,20.9
2018-10-17T08:08:08.987Z,20.9
2018-10-17T08:09:10.220Z,20.9
2018-10-17T08:10:11.416Z,20.9
2018-10-17T08:11:12.628Z,21
2018-10-17T08:12:13.971Z,20.9
2018-10-17T08:13:21.776Z,20.9
2018-10-17T08:14:24.138Z,21
2018-10-17T08:15:25.633Z,21
2018-10-17T08:16:27.160Z,21
2018-10-17T08:17:28.384Z,21
2018-10-17T08:18:32.564Z,20.8
2018-10-17T08:19:33.825Z,21
2018-10-17T08:20:37.290Z,21.1
2018-10-17T08:21:39.329Z,21.1
2018-10-17T08:22:44.352Z,21
2018-10-17T08:23:45.849Z,21.1
2018-10-17T08:24:47.053Z,21.2
2018-10-17T08:25:48.403Z,21.2
2018-10-17T08:26:52.429Z,21.2
2018-10-17T08:27:53.599Z,21.2
2018-10-17T08:28:54.795Z,21.2
2018-10-17T08:29:55.996Z,21.2
2018-10-17T08:30:57.124Z,21.2
2018-10-17T08:31:58.311Z,21.2
2018-10-17T08:32:59.833Z,21.3
2018-10-17T08:34:02.922Z,21.3
2018-10-17T08:35:04.187Z,21.4
2018-10-17T08:36:05.592Z,21.4
2018-10-17T08:37:07.323Z,21.4
2018-10-17T08:38:08.063Z,21.3
2018-10-17T08:39:09.208Z,21.5
2018-10-17T08:40:13.891Z,21.5
2018-10-17T08:41:15.130Z,21.6
2018-10-17T08:42:16.289Z,21.6
2018-10-17T08:43:17.661Z,21.6
2018-10-17T08:44:19.224Z,21.6
2018-10-17T08:45:20.388Z,21.7
2018-10-17T08:46:21.531Z,21.6
2018-10-17T08:47:22.702Z,21.7
2018-10-17T08:48:29.297Z,21.8
2018-10-17T08:49:31.487Z,21.8
2018-10-17T08:50:32.768Z,21.8
2018-10-17T08:51:34.634Z,21.9
2018-10-17T08:52:35.831Z,21.8
2018-10-17T08:53:37.010Z,22
2018-10-17T08:54:38.180Z,22
2018-10-17T08:55:39.604Z,22
2018-10-17T08:56:40.754Z,22.1
2018-10-17T08:57:46.112Z,22.1
2018-10-17T08:58:47.359Z,22.1
2018-10-17T08:59:48.661Z,22.1
2018-10-17T09:00:49.872Z,22.2
2018-10-17T09:01:51.097Z,22.2
2018-10-17T09:02:52.250Z,22.2
2018-10-17T09:03:54.417Z,22.1
2018-10-17T09:04:55.798Z,22.2
2018-10-17T09:05:57.057Z,22.2
2018-10-17T09:06:58.174Z,22.3
2018-10-17T09:07:59.379Z,22.3
2018-10-17T09:09:00.568Z,22.3
2018-10-17T09:10:01.829Z,22.2
2018-10-17T09:11:03.110Z,22.2
2018-10-17T09:12:08.639Z,22.4
2018-10-17T09:13:10.047Z,22.4
2018-10-17T09:14:13.760Z,22.3
2018-10-17T09:15:14.942Z,22.3
2018-10-17T09:16:31.240Z,22.5
2018-10-17T09:17:32.647Z,22.5
2018-10-17T09:18:33.893Z,22.5
2018-10-17T09:19:35.630Z,22.5
2018-10-17T09:20:36.802Z,22.5
2018-10-17T09:21:40.337Z,22.5
2018-10-17T09:22:41.341Z,22.5
2018-10-17T09:23:42.433Z,22.6
2018-10-17T09:24:43.604Z,22.6
2018-10-17T09:25:44.852Z,22.6
2018-10-17T09:26:50.497Z,22.6
2018-10-17T09:27:51.760Z,22.6
2018-10-17T09:28:56.086Z,22.5
2018-10-17T09:29:57.394Z,22.6
2018-10-17T09:30:58.525Z,22.7
2018-10-17T09:32:02.645Z,22.7
2018-10-17T09:33:03.817Z,22.6
2018-10-17T09:34:05.063Z,22.7
2018-10-17T09:35:06.362Z,22.7
2018-10-17T09:36:08.993Z,22.8
2018-10-17T09:37:14.543Z,22.8
2018-10-17T09:38:15.784Z,22.9
2018-10-17T09:39:19.790Z,22.9
2018-10-17T09:40:24.091Z,22.9
2018-10-17T09:41:25.295Z,22.9
2018-10-17T09:42:26.715Z,23
2018-10-17T09:43:28.137Z,22.9
2018-10-17T09:44:30.103Z,22.9
2018-10-17T09:45:38.593Z,22.9
2018-10-17T09:46:39.867Z,23
2018-10-17T09:47:41.098Z,23
2018-10-17T09:48:42.299Z,23.1
2018-10-17T09:49:43.557Z,23.1
2018-10-17T09:50:44.850Z,23.1
2018-10-17T09:51:46.024Z,23.1
2018-10-17T09:52:47.301Z,23.1
2018-10-17T09:53:48.549Z,23.1
2018-10-17T09:54:49.846Z,23.1
2018-10-17T09:55:54.020Z,23.2
2018-10-17T09:56:55.286Z,23.2
2018-10-17T09:57:56.747Z,23.2
2018-10-17T09:58:57.949Z,23.2
2018-10-17T09:59:59.727Z,23.2
2018-10-17T10:01:01.158Z,23.1
2018-10-17T10:03:08.274Z,23.2
2018-10-17T10:04:12.706Z,23.3
2018-10-17T10:05:13.804Z,23.3
2018-10-17T10:07:32.267Z,23.2
2018-10-17T10:08:34.468Z,23.3
2018-10-17T10:09:35.703Z,23.3
2018-10-17T10:10:36.900Z,23.3
2018-10-17T10:11:38.349Z,23.4
2018-10-17T10:12:39.851Z,23.4
2018-10-17T10:13:47.005Z,23.4
2018-10-17T10:14:50.734Z,23.4
2018-10-17T10:15:54.409Z,23.4
2018-10-17T10:17:03.505Z,23.5
2018-10-17T10:18:07.250Z,23.5
2018-10-17T10:19:08.463Z,23.5
2018-10-17T10:20:09.743Z,23.5
2018-10-17T10:21:10.982Z,23.5
2018-10-17T10:22:12.373Z,23.5
2018-10-17T10:23:20.246Z,23.6
2018-10-17T10:24:21.782Z,23.4
2018-10-17T10:25:23.704Z,23.4
2018-10-17T10:26:24.850Z,23.5
2018-10-17T10:27:26.290Z,23.5
2018-10-17T10:28:27.703Z,23.6
2018-10-17T10:29:29.136Z,23.5
2018-10-17T10:30:33.111Z,23.5
2018-10-17T10:31:36.741Z,23.6
2018-10-17T10:32:38.298Z,23.5
2018-10-17T10:33:39.739Z,23.6
2018-10-17T10:34:40.892Z,23.6
2018-10-17T10:35:42.207Z,23.6
2018-10-17T10:36:43.593Z,23.6
2018-10-17T10:37:44.763Z,23.6
2018-10-17T10:38:46.288Z,23.7
2018-10-17T10:39:48.167Z,23.7
2018-10-17T10:40:49.458Z,23.7
2018-10-17T10:41:57.311Z,23.7
2018-10-17T10:42:58.972Z,23.7
2018-10-17T10:44:00.248Z,23.7
2018-10-17T10:45:01.899Z,23.8
2018-10-17T10:46:02.982Z,23.8
2018-10-17T10:47:04.175Z,23.8
2018-10-17T10:48:07.614Z,23.9
2018-10-17T10:49:08.984Z,23.8
2018-10-17T10:50:12.713Z,23.7
2018-10-17T10:51:20.364Z,23.9
2018-10-17T10:52:22.838Z,23.9
2018-10-17T10:53:24.228Z,23.9
2018-10-17T10:54:29.329Z,23.7
2018-10-17T10:55:30.630Z,23.9
2018-10-17T10:56:31.819Z,23.9
2018-10-17T10:57:33.052Z,23.7
2018-10-17T10:58:36.421Z,24
2018-10-17T10:59:37.777Z,23.9
2018-10-17T11:00:39.281Z,23.9
2018-10-17T11:01:40.712Z,23.9
2018-10-17T11:02:41.947Z,24
2018-10-17T11:03:43.240Z,24
2018-10-17T11:04:44.686Z,24
2018-10-17T11:06:51.664Z,24
2018-10-17T11:07:53.600Z,24
2018-10-17T11:08:55.108Z,24
2018-10-17T11:09:57.019Z,24
2018-10-17T11:11:05.336Z,24
2018-10-17T11:12:06.606Z,24
2018-10-17T11:13:07.789Z,24
2018-10-17T11:14:10.353Z,24
2018-10-17T11:15:12.634Z,24.1
2018-10-17T11:16:13.855Z,24.1
2018-10-17T11:17:32.338Z,24.1
2018-10-17T11:18:33.757Z,24.1
2018-10-17T11:19:35.214Z,24.1
2018-10-17T11:20:36.669Z,24.1
2018-10-17T11:21:37.909Z,24.1
2018-10-17T11:22:50.017Z,24.1
2018-10-17T11:23:51.603Z,24.1
2018-10-17T11:24:57.931Z,24.1
2018-10-17T11:25:59.430Z,24.2
2018-10-17T11:27:01.025Z,24.2
2018-10-17T11:28:04.936Z,24.2
2018-10-17T11:29:13.132Z,24.2
2018-10-17T11:30:15.952Z,24.2
2018-10-17T11:31:18.386Z,24.2
2018-10-17T11:32:25.803Z,24.2
2018-10-17T11:33:27.433Z,24.1
2018-10-17T11:34:29.080Z,24.2
2018-10-17T11:35:33.279Z,24.1
2018-10-17T11:36:38.379Z,24.2
2018-10-17T11:37:39.936Z,24.2
2018-10-17T11:38:43.355Z,24.2
2018-10-17T11:39:48.562Z,24.3
2018-10-17T11:40:49.896Z,24.3
2018-10-17T11:41:54.891Z,24.3
2018-10-17T11:43:03.575Z,24.3
2018-10-17T11:44:04.749Z,24.2
2018-10-17T11:45:06.930Z,24.3
2018-10-17T11:46:08.047Z,24.3
2018-10-17T11:47:09.362Z,24.3
2018-10-17T11:48:10.640Z,24.3
2018-10-17T11:49:12.084Z,24.3
2018-10-17T11:50:13.240Z,24.4
2018-10-17T11:51:14.531Z,24.4
2018-10-17T11:53:42.898Z,24.4
2018-10-17T11:54:46.536Z,24.3
2018-10-17T11:55:50.403Z,24.4
2018-10-17T11:56:53.296Z,24.4
2018-10-17T11:57:54.465Z,24.3
2018-10-17T11:59:03.078Z,24.4
2018-10-17T12:00:04.278Z,24.4
2018-10-17T12:01:06.705Z,24.4
2018-10-17T12:02:12.750Z,24.4
2018-10-17T12:03:14.230Z,24.4
2018-10-17T12:04:15.956Z,24.4
2018-10-17T12:05:17.078Z,24.5
2018-10-17T12:06:24.523Z,24.5
2018-10-17T12:07:26.889Z,24.4
2018-10-17T12:08:28.890Z,24.5
2018-10-17T12:09:37.657Z,24.4
2018-10-17T12:10:38.910Z,24.5
2018-10-17T12:11:42.361Z,24.5
2018-10-17T12:12:44.123Z,24.5
2018-10-17T12:13:49.886Z,24.5
2018-10-17T12:16:07.995Z,24.5
2018-10-17T12:17:09.146Z,24.5
2018-10-17T12:18:12.482Z,24.5
2018-10-17T12:19:13.802Z,24.5
2018-10-17T12:20:19.728Z,24.5
2018-10-17T12:21:21.820Z,24.5
2018-10-17T12:22:23.017Z,24.6
2018-10-17T12:23:24.207Z,24.6
2018-10-17T12:24:25.593Z,24.6
2018-10-17T12:25:26.826Z,24.6
2018-10-17T12:26:28.242Z,24.6
2018-10-17T12:27:29.500Z,24.6
2018-10-17T12:28:30.779Z,24.6
2018-10-17T12:29:31.845Z,24.6
2018-10-17T12:30:35.565Z,24.6
2018-10-17T12:31:39.245Z,24.7
2018-10-17T12:32:41.607Z,24.7
2018-10-17T12:33:45.237Z,24.7
2018-10-17T12:34:46.414Z,24.7
2018-10-17T12:35:47.634Z,24.6
2018-10-17T12:36:48.860Z,24.7
2018-10-17T12:38:02.173Z,24.7
2018-10-17T12:39:08.549Z,24.7
2018-10-17T12:40:09.831Z,24.7
2018-10-17T12:41:10.970Z,24.7
2018-10-17T12:42:12.065Z,24.7
2018-10-17T12:43:15.842Z,24.7
2018-10-17T12:44:17.287Z,24.7
2018-10-17T12:45:18.420Z,24.7
2018-10-17T12:46:21.070Z,24.7
2018-10-17T12:47:34.053Z,24.7
2018-10-17T12:48:39.778Z,24.8
2018-10-17T12:49:40.986Z,24.8
2018-10-17T12:50:42.166Z,24.8
2018-10-17T12:51:46.615Z,24.7
2018-10-17T12:52:49.279Z,24.8
2018-10-17T12:53:50.394Z,24.8
2018-10-17T12:54:51.602Z,24.8
2018-10-17T12:55:57.970Z,24.7
2018-10-17T12:57:01.589Z,24.8
2018-10-17T12:58:02.744Z,24.8
2018-10-17T12:59:04.193Z,24.8
2018-10-17T13:00:05.324Z,24.8
2018-10-17T13:01:06.652Z,24.8
2018-10-17T13:02:07.845Z,24.8
2018-10-17T13:03:11.097Z,24.8
2018-10-17T13:04:12.331Z,24.8
2018-10-17T13:05:16.020Z,24.7
2018-10-17T13:06:17.109Z,24.8
2018-10-17T13:07:18.538Z,24.8
2018-10-17T13:08:19.798Z,24.8
2018-10-17T13:09:20.968Z,24.8
2018-10-17T13:10:24.572Z,24.8
2018-10-17T13:11:25.757Z,24.8
2018-10-17T13:12:27.016Z,24.8
2018-10-17T13:13:28.211Z,24.9
2018-10-17T13:14:29.577Z,24.8
2018-10-17T13:15:33.299Z,24.8
2018-10-17T13:16:38.512Z,24.8
2018-10-17T13:17:39.821Z,24.8
2018-10-17T13:18:41.607Z,24.7
2018-10-17T13:19:45.130Z,24.8
2018-10-17T13:20:46.577Z,24.8
2018-10-17T13:21:47.794Z,24.8
2018-10-17T13:22:49.239Z,24.8
2018-10-17T13:23:50.489Z,24.7
2018-10-17T13:24:52.388Z,24.8
2018-10-17T13:25:53.790Z,24.8
2018-10-17T13:26:54.950Z,24.8
2018-10-17T13:27:56.181Z,24.7
2018-10-17T13:28:57.584Z,24.8
2018-10-17T13:29:58.722Z,24.8
2018-10-17T13:31:01.301Z,24.8
2018-10-17T13:32:05.276Z,24.8
2018-10-17T13:33:06.535Z,24.7
2018-10-17T13:34:10.751Z,24.8
2018-10-17T13:35:12.226Z,24.7
2018-10-17T13:36:13.405Z,24.8
2018-10-17T13:37:14.699Z,24.8
2018-10-17T13:38:15.901Z,24.8
2018-10-17T13:39:17.091Z,24.8
2018-10-17T13:40:18.351Z,24.8
2018-10-17T13:41:19.520Z,24.8
2018-10-17T13:42:25.676Z,24.8
2018-10-17T13:43:26.862Z,24.8
2018-10-17T13:45:43.657Z,24.8
2018-10-17T13:46:44.813Z,24.8
2018-10-17T13:47:46.273Z,24.8
2018-10-17T13:48:48.775Z,24.7
2018-10-17T13:49:52.631Z,24.8
2018-10-17T13:50:53.792Z,24.8
2018-10-17T13:51:54.962Z,24.8
2018-10-17T13:52:56.228Z,24.8
2018-10-17T13:53:57.378Z,24.8
2018-10-17T13:54:58.642Z,24.8
2018-10-17T13:55:59.752Z,24.6
2018-10-17T13:57:01.032Z,24.7
2018-10-17T13:58:02.275Z,24.7
2018-10-17T13:59:03.456Z,24.8